sensor_id;sensor_type;location;lat;lon;timestamp;temperature;humidity
16907;DHT22;8570;52.380;4.654;2023-02-15T00:03:52;4.20;99.90
16907;DHT22;8570;52.380;4.654;2023-02-15T00:08:55;4.10;99.90
16907;DHT22;8570;52.380;4.654;2023-02-15T00:13:57;4.10;99.90
16907;DHT22;8570;52.380;4.654;2023-02-15T00:19:00;4.10;99.90
16907;DHT22;8570;52.380;4.654;2023-02-15T00:24:04;4.00;99.90
16907;DHT22;8570;52.380;4.654;2023-02-15T00:29:07;3.90;99.90
16907;DHT22;8570;52.380;4.654;2023-02-15T00:34:14;3.90;99.90
16907;DHT22;8570;52.380;4.654;2023-02-15T00:39:16;3.80;99.90
16907;DHT22;8570;52.380;4.654;2023-02-15T00:44:18;3.80;99.90
16907;DHT22;8570;52.380;4.654;2023-02-15T00:49:22;3.80;99.90
16907;DHT22;8570;52.380;4.654;2023-02-15T00:54:24;3.70;99.90
16907;DHT22;8570;52.380;4.654;2023-02-15T01:04:29;3.60;99.90
16907;DHT22;8570;52.380;4.654;2023-02-15T01:09:31;3.60;99.90
16907;DHT22;8570;52.380;4.654;2023-02-15T01:14:33;3.50;99.90
16907;DHT22;8570;52.380;4.654;2023-02-15T01:19:36;3.50;99.90
16907;DHT22;8570;52.380;4.654;2023-02-15T01:24:38;3.40;99.90
16907;DHT22;8570;52.380;4.654;2023-02-15T01:29:40;3.40;99.90
16907;DHT22;8570;52.380;4.654;2023-02-15T01:34:44;3.40;99.90
16907;DHT22;8570;52.380;4.654;2023-02-15T01:39:45;3.30;99.90
16907;DHT22;8570;52.380;4.654;2023-02-15T01:44:49;3.30;99.90
16907;DHT22;8570;52.380;4.654;2023-02-15T01:50:00;3.20;99.90
16907;DHT22;8570;52.380;4.654;2023-02-15T01:55:04;3.20;99.90
16907;DHT22;8570;52.380;4.654;2023-02-15T02:00:08;3.20;99.90
16907;DHT22;8570;52.380;4.654;2023-02-15T02:05:12;3.20;99.90
16907;DHT22;8570;52.380;4.654;2023-02-15T02:10:17;3.10;99.90
16907;DHT22;8570;52.380;4.654;2023-02-15T02:15:23;3.10;99.90
16907;DHT22;8570;52.380;4.654;2023-02-15T02:20:52;3.10;99.90
16907;DHT22;8570;52.380;4.654;2023-02-15T02:26:18;3.00;99.90
16907;DHT22;8570;52.380;4.654;2023-02-15T02:31:44;3.00;99.90
16907;DHT22;8570;52.380;4.654;2023-02-15T02:36:51;3.00;99.90
16907;DHT22;8570;52.380;4.654;2023-02-15T02:42:00;2.90;99.90
16907;DHT22;8570;52.380;4.654;2023-02-15T02:47:08;2.90;99.90
16907;DHT22;8570;52.380;4.654;2023-02-15T02:52:35;2.90;99.90
16907;DHT22;8570;52.380;4.654;2023-02-15T02:57:45;2.80;99.90
16907;DHT22;8570;52.380;4.654;2023-02-15T03:02:50;2.80;99.90
16907;DHT22;8570;52.380;4.654;2023-02-15T03:07:56;2.70;99.90
16907;DHT22;8570;52.380;4.654;2023-02-15T03:12:59;2.70;99.90
16907;DHT22;8570;52.380;4.654;2023-02-15T03:18:02;2.70;99.90
16907;DHT22;8570;52.380;4.654;2023-02-15T03:23:09;2.70;99.90
16907;DHT22;8570;52.380;4.654;2023-02-15T03:28:16;2.70;99.90
16907;DHT22;8570;52.380;4.654;2023-02-15T03:33:21;2.60;99.90
16907;DHT22;8570;52.380;4.654;2023-02-15T03:38:30;2.60;99.90
16907;DHT22;8570;52.380;4.654;2023-02-15T03:43:40;2.60;99.90
16907;DHT22;8570;52.380;4.654;2023-02-15T03:48:45;2.50;99.90
16907;DHT22;8570;52.380;4.654;2023-02-15T03:53:50;2.50;99.90
16907;DHT22;8570;52.380;4.654;2023-02-15T03:58:53;2.50;99.90
16907;DHT22;8570;52.380;4.654;2023-02-15T04:04:17;2.40;99.90
16907;DHT22;8570;52.380;4.654;2023-02-15T04:09:23;2.40;99.90
16907;DHT22;8570;52.380;4.654;2023-02-15T04:14:43;2.50;99.90
16907;DHT22;8570;52.380;4.654;2023-02-15T04:20:07;2.50;99.90
16907;DHT22;8570;52.380;4.654;2023-02-15T04:25:31;2.50;99.90
16907;DHT22;8570;52.380;4.654;2023-02-15T04:30:34;2.50;99.90
16907;DHT22;8570;52.380;4.654;2023-02-15T04:35:36;2.50;99.90
16907;DHT22;8570;52.380;4.654;2023-02-15T04:40:39;2.50;99.90
16907;DHT22;8570;52.380;4.654;2023-02-15T04:45:41;2.40;99.90
16907;DHT22;8570;52.380;4.654;2023-02-15T04:50:43;2.50;99.90
16907;DHT22;8570;52.380;4.654;2023-02-15T04:55:47;2.50;99.90
16907;DHT22;8570;52.380;4.654;2023-02-15T05:00:49;2.60;99.90
16907;DHT22;8570;52.380;4.654;2023-02-15T05:05:51;2.70;99.90
16907;DHT22;8570;52.380;4.654;2023-02-15T05:10:54;2.70;99.90
16907;DHT22;8570;52.380;4.654;2023-02-15T05:15:56;2.70;99.90
16907;DHT22;8570;52.380;4.654;2023-02-15T05:20:58;2.60;99.90
16907;DHT22;8570;52.380;4.654;2023-02-15T05:26:01;2.60;99.90
16907;DHT22;8570;52.380;4.654;2023-02-15T05:31:21;2.60;99.90
16907;DHT22;8570;52.380;4.654;2023-02-15T05:36:23;2.50;99.90
16907;DHT22;8570;52.380;4.654;2023-02-15T05:41:26;2.50;99.90
16907;DHT22;8570;52.380;4.654;2023-02-15T05:46:28;2.50;99.90
16907;DHT22;8570;52.380;4.654;2023-02-15T05:51:30;2.50;99.90
16907;DHT22;8570;52.380;4.654;2023-02-15T05:56:33;2.60;99.90
16907;DHT22;8570;52.380;4.654;2023-02-15T06:01:35;2.50;99.90
16907;DHT22;8570;52.380;4.654;2023-02-15T06:06:37;2.60;99.90
16907;DHT22;8570;52.380;4.654;2023-02-15T06:11:40;2.60;99.90
16907;DHT22;8570;52.380;4.654;2023-02-15T06:16:43;2.50;99.90
16907;DHT22;8570;52.380;4.654;2023-02-15T06:21:45;2.50;99.90
16907;DHT22;8570;52.380;4.654;2023-02-15T06:26:48;2.50;99.90
16907;DHT22;8570;52.380;4.654;2023-02-15T06:31:50;2.50;99.90
16907;DHT22;8570;52.380;4.654;2023-02-15T06:36:52;2.50;99.90
16907;DHT22;8570;52.380;4.654;2023-02-15T06:41:55;2.60;99.90
16907;DHT22;8570;52.380;4.654;2023-02-15T06:46:57;2.60;99.90
16907;DHT22;8570;52.380;4.654;2023-02-15T06:51:59;2.60;99.90
16907;DHT22;8570;52.380;4.654;2023-02-15T06:57:02;2.60;99.90
16907;DHT22;8570;52.380;4.654;2023-02-15T07:02:05;2.60;99.90
16907;DHT22;8570;52.380;4.654;2023-02-15T07:07:09;2.60;99.90
16907;DHT22;8570;52.380;4.654;2023-02-15T07:12:13;2.60;99.90
16907;DHT22;8570;52.380;4.654;2023-02-15T07:17:32;2.60;99.90
16907;DHT22;8570;52.380;4.654;2023-02-15T07:22:34;2.60;99.90
16907;DHT22;8570;52.380;4.654;2023-02-15T07:27:39;2.60;99.90
16907;DHT22;8570;52.380;4.654;2023-02-15T07:32:42;2.70;99.90
16907;DHT22;8570;52.380;4.654;2023-02-15T07:37:58;2.70;99.90
16907;DHT22;8570;52.380;4.654;2023-02-15T07:43:02;2.70;99.90
16907;DHT22;8570;52.380;4.654;2023-02-15T07:48:04;2.80;99.90
16907;DHT22;8570;52.380;4.654;2023-02-15T07:53:06;2.80;99.90
16907;DHT22;8570;52.380;4.654;2023-02-15T07:58:10;2.80;99.90
16907;DHT22;8570;52.380;4.654;2023-02-15T08:03:14;2.80;99.90
16907;DHT22;8570;52.380;4.654;2023-02-15T08:08:16;2.90;99.90
16907;DHT22;8570;52.380;4.654;2023-02-15T08:13:32;2.90;99.90
16907;DHT22;8570;52.380;4.654;2023-02-15T08:18:34;3.00;99.90
16907;DHT22;8570;52.380;4.654;2023-02-15T08:23:36;3.00;99.90
16907;DHT22;8570;52.380;4.654;2023-02-15T08:28:40;3.10;99.90
16907;DHT22;8570;52.380;4.654;2023-02-15T08:33:43;3.10;99.90
16907;DHT22;8570;52.380;4.654;2023-02-15T08:38:46;3.20;99.90
16907;DHT22;8570;52.380;4.654;2023-02-15T08:43:56;3.30;99.90
16907;DHT22;8570;52.380;4.654;2023-02-15T08:48:59;3.30;99.90
16907;DHT22;8570;52.380;4.654;2023-02-15T08:54:03;3.40;99.90
16907;DHT22;8570;52.380;4.654;2023-02-15T08:59:12;3.50;99.90
16907;DHT22;8570;52.380;4.654;2023-02-15T09:04:14;3.70;99.90
16907;DHT22;8570;52.380;4.654;2023-02-15T09:09:19;3.80;99.90
16907;DHT22;8570;52.380;4.654;2023-02-15T09:14:25;3.90;99.90
16907;DHT22;8570;52.380;4.654;2023-02-15T09:19:28;4.00;99.90
16907;DHT22;8570;52.380;4.654;2023-02-15T09:24:33;4.10;99.90
16907;DHT22;8570;52.380;4.654;2023-02-15T09:29:37;4.30;99.90
16907;DHT22;8570;52.380;4.654;2023-02-15T09:34:44;4.40;99.90
16907;DHT22;8570;52.380;4.654;2023-02-15T09:40:03;4.60;99.90
16907;DHT22;8570;52.380;4.654;2023-02-15T09:45:27;4.70;99.90
16907;DHT22;8570;52.380;4.654;2023-02-15T09:50:54;4.90;99.90
16907;DHT22;8570;52.380;4.654;2023-02-15T10:02:29;5.30;99.90
16907;DHT22;8570;52.380;4.654;2023-02-15T10:13:31;6.20;99.90
16907;DHT22;8570;52.380;4.654;2023-02-15T10:18:59;6.70;99.90
16907;DHT22;8570;52.380;4.654;2023-02-15T10:29:38;7.70;99.90
16907;DHT22;8570;52.380;4.654;2023-02-15T10:45:20;8.60;99.90
16907;DHT22;8570;52.380;4.654;2023-02-15T10:50:40;8.90;99.90
16907;DHT22;8570;52.380;4.654;2023-02-15T10:56:15;9.10;99.90
16907;DHT22;8570;52.380;4.654;2023-02-15T11:01:57;9.00;99.90
16907;DHT22;8570;52.380;4.654;2023-02-15T11:07:16;8.90;99.90
16907;DHT22;8570;52.380;4.654;2023-02-15T11:12:31;9.00;99.90
16907;DHT22;8570;52.380;4.654;2023-02-15T11:17:55;9.30;99.90
16907;DHT22;8570;52.380;4.654;2023-02-15T11:25:43;9.50;99.90
16907;DHT22;8570;52.380;4.654;2023-02-15T11:29:26;9.80;99.90
16907;DHT22;8570;52.380;4.654;2023-02-15T11:34:50;9.90;99.90
16907;DHT22;8570;52.380;4.654;2023-02-15T12:16:12;10.00;99.90
16907;DHT22;8570;52.380;4.654;2023-02-15T12:31:43;11.10;99.90
16907;DHT22;8570;52.380;4.654;2023-02-15T12:36:47;10.80;99.90
16907;DHT22;8570;52.380;4.654;2023-02-15T12:42:08;10.90;99.90
16907;DHT22;8570;52.380;4.654;2023-02-15T12:47:22;10.90;99.90
16907;DHT22;8570;52.380;4.654;2023-02-15T12:52:25;10.90;99.90
16907;DHT22;8570;52.380;4.654;2023-02-15T12:57:35;11.00;99.90
16907;DHT22;8570;52.380;4.654;2023-02-15T13:02:43;11.00;99.90
16907;DHT22;8570;52.380;4.654;2023-02-15T13:07:49;10.90;99.90
16907;DHT22;8570;52.380;4.654;2023-02-15T13:13:08;10.90;99.90
16907;DHT22;8570;52.380;4.654;2023-02-15T13:18:18;11.00;99.90
16907;DHT22;8570;52.380;4.654;2023-02-15T13:23:38;11.00;99.90
16907;DHT22;8570;52.380;4.654;2023-02-15T13:28:47;11.00;99.90
16907;DHT22;8570;52.380;4.654;2023-02-15T13:34:14;11.00;99.90
16907;DHT22;8570;52.380;4.654;2023-02-15T13:39:34;11.10;99.90
16907;DHT22;8570;52.380;4.654;2023-02-15T13:45:00;11.20;99.90
16907;DHT22;8570;52.380;4.654;2023-02-15T13:50:41;11.20;99.90
16907;DHT22;8570;52.380;4.654;2023-02-15T13:55:58;11.20;99.90
16907;DHT22;8570;52.380;4.654;2023-02-15T14:07:16;11.20;99.90
16907;DHT22;8570;52.380;4.654;2023-02-15T14:12:55;11.20;99.90
16907;DHT22;8570;52.380;4.654;2023-02-15T14:18:27;11.20;99.90
16907;DHT22;8570;52.380;4.654;2023-02-15T14:30:10;11.20;99.90
16907;DHT22;8570;52.380;4.654;2023-02-15T14:35:17;11.20;99.90
16907;DHT22;8570;52.380;4.654;2023-02-15T14:40:34;11.10;99.90
16907;DHT22;8570;52.380;4.654;2023-02-15T14:46:06;11.10;99.90
16907;DHT22;8570;52.380;4.654;2023-02-15T14:51:10;11.10;99.90
16907;DHT22;8570;52.380;4.654;2023-02-15T15:02:18;11.20;99.90
16907;DHT22;8570;52.380;4.654;2023-02-15T15:07:37;11.30;99.90
16907;DHT22;8570;52.380;4.654;2023-02-15T15:12:45;11.30;99.90
16907;DHT22;8570;52.380;4.654;2023-02-15T15:17:58;11.30;99.90
16907;DHT22;8570;52.380;4.654;2023-02-15T15:24:00;11.30;99.90
16907;DHT22;8570;52.380;4.654;2023-02-15T15:29:06;11.20;99.90
16907;DHT22;8570;52.380;4.654;2023-02-15T15:51:37;10.90;99.90
16907;DHT22;8570;52.380;4.654;2023-02-15T15:56:46;10.80;99.90
16907;DHT22;8570;52.380;4.654;2023-02-15T16:02:20;10.80;99.90
16907;DHT22;8570;52.380;4.654;2023-02-15T16:07:56;10.70;99.90
16907;DHT22;8570;52.380;4.654;2023-02-15T16:13:13;10.70;99.90
16907;DHT22;8570;52.380;4.654;2023-02-15T16:18:25;10.60;99.90
16907;DHT22;8570;52.380;4.654;2023-02-15T16:29:30;10.50;99.90
16907;DHT22;8570;52.380;4.654;2023-02-15T16:35:12;10.40;99.90
16907;DHT22;8570;52.380;4.654;2023-02-15T16:40:50;10.40;99.90
16907;DHT22;8570;52.380;4.654;2023-02-15T16:46:03;10.30;99.90
16907;DHT22;8570;52.380;4.654;2023-02-15T16:51:29;10.20;99.90
16907;DHT22;8570;52.380;4.654;2023-02-15T16:57:03;10.10;99.90
16907;DHT22;8570;52.380;4.654;2023-02-15T17:02:32;10.00;99.90
16907;DHT22;8570;52.380;4.654;2023-02-15T17:08:17;9.90;99.90
16907;DHT22;8570;52.380;4.654;2023-02-15T17:13:26;9.80;99.90
16907;DHT22;8570;52.380;4.654;2023-02-15T17:24:15;9.60;99.90
16907;DHT22;8570;52.380;4.654;2023-02-15T17:36:35;9.50;99.90
16907;DHT22;8570;52.380;4.654;2023-02-15T17:41:44;9.40;99.90
16907;DHT22;8570;52.380;4.654;2023-02-15T17:52:58;9.40;99.90
16907;DHT22;8570;52.380;4.654;2023-02-15T18:04:39;9.20;99.90
16907;DHT22;8570;52.380;4.654;2023-02-15T18:09:23;9.10;99.90
16907;DHT22;8570;52.380;4.654;2023-02-15T18:14:51;9.00;99.90
16907;DHT22;8570;52.380;4.654;2023-02-15T18:20:26;8.90;99.90
16907;DHT22;8570;52.380;4.654;2023-02-15T18:26:22;8.90;99.90
16907;DHT22;8570;52.380;4.654;2023-02-15T18:32:24;8.80;99.90
16907;DHT22;8570;52.380;4.654;2023-02-15T18:49:16;8.70;99.90
16907;DHT22;8570;52.380;4.654;2023-02-15T19:06:54;8.60;99.90
16907;DHT22;8570;52.380;4.654;2023-02-15T19:12:29;8.60;99.90
16907;DHT22;8570;52.380;4.654;2023-02-15T19:17:56;8.50;99.90
16907;DHT22;8570;52.380;4.654;2023-02-15T19:23:28;8.50;99.90
16907;DHT22;8570;52.380;4.654;2023-02-15T19:28:40;8.40;99.90
16907;DHT22;8570;52.380;4.654;2023-02-15T19:45:39;8.30;99.90
16907;DHT22;8570;52.380;4.654;2023-02-15T19:51:13;8.20;99.90
16907;DHT22;8570;52.380;4.654;2023-02-15T19:56:55;8.10;99.90
16907;DHT22;8570;52.380;4.654;2023-02-15T20:02:22;8.00;99.90
16907;DHT22;8570;52.380;4.654;2023-02-15T20:08:03;8.00;99.90
16907;DHT22;8570;52.380;4.654;2023-02-15T20:13:23;7.90;99.90
16907;DHT22;8570;52.380;4.654;2023-02-15T20:18:29;7.90;99.90
16907;DHT22;8570;52.380;4.654;2023-02-15T20:23:38;7.90;99.90
16907;DHT22;8570;52.380;4.654;2023-02-15T20:28:47;7.80;99.90
16907;DHT22;8570;52.380;4.654;2023-02-15T20:40:11;7.80;99.90
16907;DHT22;8570;52.380;4.654;2023-02-15T20:45:33;7.70;99.90
16907;DHT22;8570;52.380;4.654;2023-02-15T20:50:44;7.70;99.90
16907;DHT22;8570;52.380;4.654;2023-02-15T20:56:12;7.60;99.90
16907;DHT22;8570;52.380;4.654;2023-02-15T21:01:21;7.60;99.90
16907;DHT22;8570;52.380;4.654;2023-02-15T21:06:28;7.50;99.90
16907;DHT22;8570;52.380;4.654;2023-02-15T21:11:32;7.50;99.90
16907;DHT22;8570;52.380;4.654;2023-02-15T21:16:53;7.40;99.90
16907;DHT22;8570;52.380;4.654;2023-02-15T21:22:08;7.40;99.90
16907;DHT22;8570;52.380;4.654;2023-02-15T21:27:16;7.40;99.90
16907;DHT22;8570;52.380;4.654;2023-02-15T21:32:19;7.40;99.90
16907;DHT22;8570;52.380;4.654;2023-02-15T21:37:33;7.30;99.90
16907;DHT22;8570;52.380;4.654;2023-02-15T21:42:53;7.30;99.90
16907;DHT22;8570;52.380;4.654;2023-02-15T21:48:26;7.30;99.90
16907;DHT22;8570;52.380;4.654;2023-02-15T21:53:33;7.20;99.90
16907;DHT22;8570;52.380;4.654;2023-02-15T21:58:45;7.20;99.90
16907;DHT22;8570;52.380;4.654;2023-02-15T22:03:52;7.20;99.90
16907;DHT22;8570;52.380;4.654;2023-02-15T22:08:54;7.10;99.90
16907;DHT22;8570;52.380;4.654;2023-02-15T22:14:03;7.10;99.90
16907;DHT22;8570;52.380;4.654;2023-02-15T22:19:19;7.10;99.90
16907;DHT22;8570;52.380;4.654;2023-02-15T22:24:39;7.10;99.90
16907;DHT22;8570;52.380;4.654;2023-02-15T22:29:53;7.10;99.90
16907;DHT22;8570;52.380;4.654;2023-02-15T22:35:03;7.10;99.90
16907;DHT22;8570;52.380;4.654;2023-02-15T22:40:13;7.10;99.90
16907;DHT22;8570;52.380;4.654;2023-02-15T22:45:21;7.00;99.90
16907;DHT22;8570;52.380;4.654;2023-02-15T22:50:29;7.00;99.90
16907;DHT22;8570;52.380;4.654;2023-02-15T22:55:35;7.00;99.90
16907;DHT22;8570;52.380;4.654;2023-02-15T23:00:41;7.00;99.90
16907;DHT22;8570;52.380;4.654;2023-02-15T23:05:50;6.90;99.90
16907;DHT22;8570;52.380;4.654;2023-02-15T23:11:08;6.90;99.90
16907;DHT22;8570;52.380;4.654;2023-02-15T23:16:27;6.90;99.90
